sensor_id;sensor_type;location;lat;lon;timestamp;P1;durP1;ratioP1;P2;durP2;ratioP2
1725;SDS011;41776;48.260;8.928;2022-10-26T00:00:41;5.30;;;1.20;;
1725;SDS011;41776;48.260;8.928;2022-10-26T00:03:07;3.97;;;1.08;;
1725;SDS011;41776;48.260;8.928;2022-10-26T00:05:34;2.42;;;0.93;;
1725;SDS011;41776;48.260;8.928;2022-10-26T00:08:00;1.80;;;1.10;;
1725;SDS011;41776;48.260;8.928;2022-10-26T00:10:27;4.18;;;1.00;;
1725;SDS011;41776;48.260;8.928;2022-10-26T00:12:54;1.10;;;0.98;;
1725;SDS011;41776;48.260;8.928;2022-10-26T00:15:21;1.92;;;1.00;;
1725;SDS011;41776;48.260;8.928;2022-10-26T00:17:48;3.35;;;1.05;;
1725;SDS011;41776;48.260;8.928;2022-10-26T00:20:16;3.30;;;0.70;;
1725;SDS011;41776;48.260;8.928;2022-10-26T00:22:42;1.80;;;0.93;;
1725;SDS011;41776;48.260;8.928;2022-10-26T00:25:09;2.95;;;1.40;;
1725;SDS011;41776;48.260;8.928;2022-10-26T00:27:35;2.78;;;0.80;;
1725;SDS011;41776;48.260;8.928;2022-10-26T00:30:02;8.43;;;1.20;;
1725;SDS011;41776;48.260;8.928;2022-10-26T00:32:32;4.95;;;1.40;;
1725;SDS011;41776;48.260;8.928;2022-10-26T00:34:59;4.45;;;1.23;;
1725;SDS011;41776;48.260;8.928;2022-10-26T00:37:25;3.10;;;1.30;;
1725;SDS011;41776;48.260;8.928;2022-10-26T00:39:52;4.45;;;1.38;;
1725;SDS011;41776;48.260;8.928;2022-10-26T00:42:19;2.15;;;1.00;;
1725;SDS011;41776;48.260;8.928;2022-10-26T00:44:57;2.40;;;1.20;;
1725;SDS011;41776;48.260;8.928;2022-10-26T00:47:37;6.68;;;1.15;;
1725;SDS011;41776;48.260;8.928;2022-10-26T00:50:08;3.28;;;1.10;;
1725;SDS011;41776;48.260;8.928;2022-10-26T00:52:40;2.03;;;1.00;;
1725;SDS011;41776;48.260;8.928;2022-10-26T00:55:07;10.18;;;1.33;;
1725;SDS011;41776;48.260;8.928;2022-10-26T00:57:34;5.53;;;1.17;;
1725;SDS011;41776;48.260;8.928;2022-10-26T01:00:03;3.67;;;0.93;;
1725;SDS011;41776;48.260;8.928;2022-10-26T01:02:30;4.43;;;1.45;;
1725;SDS011;41776;48.260;8.928;2022-10-26T01:04:58;2.35;;;0.90;;
1725;SDS011;41776;48.260;8.928;2022-10-26T01:07:28;2.75;;;1.13;;
1725;SDS011;41776;48.260;8.928;2022-10-26T01:09:54;3.60;;;0.98;;
1725;SDS011;41776;48.260;8.928;2022-10-26T01:12:22;5.57;;;1.30;;
1725;SDS011;41776;48.260;8.928;2022-10-26T01:14:48;3.17;;;0.82;;
1725;SDS011;41776;48.260;8.928;2022-10-26T01:17:30;3.08;;;1.10;;
1725;SDS011;41776;48.260;8.928;2022-10-26T01:20:20;3.85;;;1.10;;
1725;SDS011;41776;48.260;8.928;2022-10-26T01:23:04;3.35;;;1.17;;
1725;SDS011;41776;48.260;8.928;2022-10-26T01:28:39;6.18;;;1.33;;
1725;SDS011;41776;48.260;8.928;2022-10-26T01:31:25;4.55;;;1.45;;
1725;SDS011;41776;48.260;8.928;2022-10-26T01:33:58;3.70;;;1.02;;
1725;SDS011;41776;48.260;8.928;2022-10-26T01:36:29;2.72;;;1.00;;
1725;SDS011;41776;48.260;8.928;2022-10-26T01:39:00;2.78;;;0.77;;
1725;SDS011;41776;48.260;8.928;2022-10-26T01:41:34;3.45;;;1.45;;
1725;SDS011;41776;48.260;8.928;2022-10-26T01:44:06;3.72;;;0.98;;
1725;SDS011;41776;48.260;8.928;2022-10-26T01:46:37;2.88;;;0.90;;
1725;SDS011;41776;48.260;8.928;2022-10-26T01:49:08;6.05;;;1.10;;
1725;SDS011;41776;48.260;8.928;2022-10-26T01:51:37;6.45;;;1.00;;
1725;SDS011;41776;48.260;8.928;2022-10-26T01:54:05;3.13;;;1.02;;
1725;SDS011;41776;48.260;8.928;2022-10-26T01:56:33;6.43;;;1.05;;
1725;SDS011;41776;48.260;8.928;2022-10-26T01:59:11;4.97;;;1.08;;
1725;SDS011;41776;48.260;8.928;2022-10-26T02:01:52;2.58;;;1.00;;
1725;SDS011;41776;48.260;8.928;2022-10-26T02:04:42;7.85;;;1.45;;
1725;SDS011;41776;48.260;8.928;2022-10-26T02:07:21;3.97;;;1.20;;
1725;SDS011;41776;48.260;8.928;2022-10-26T02:09:55;5.05;;;1.23;;
1725;SDS011;41776;48.260;8.928;2022-10-26T02:12:32;3.03;;;1.13;;
1725;SDS011;41776;48.260;8.928;2022-10-26T02:15:07;9.00;;;1.17;;
1725;SDS011;41776;48.260;8.928;2022-10-26T02:17:43;2.63;;;1.00;;
1725;SDS011;41776;48.260;8.928;2022-10-26T02:20:15;2.97;;;1.25;;
1725;SDS011;41776;48.260;8.928;2022-10-26T02:22:47;5.35;;;1.30;;
1725;SDS011;41776;48.260;8.928;2022-10-26T02:25:16;3.85;;;1.00;;
1725;SDS011;41776;48.260;8.928;2022-10-26T02:27:46;10.68;;;1.13;;
1725;SDS011;41776;48.260;8.928;2022-10-26T02:30:16;7.47;;;0.90;;
1725;SDS011;41776;48.260;8.928;2022-10-26T02:32:45;4.28;;;1.33;;
1725;SDS011;41776;48.260;8.928;2022-10-26T02:35:15;8.55;;;1.13;;
1725;SDS011;41776;48.260;8.928;2022-10-26T02:37:44;5.10;;;1.05;;
1725;SDS011;41776;48.260;8.928;2022-10-26T02:40:13;3.47;;;1.10;;
1725;SDS011;41776;48.260;8.928;2022-10-26T02:42:44;5.60;;;1.00;;
1725;SDS011;41776;48.260;8.928;2022-10-26T02:45:12;2.50;;;0.75;;
1725;SDS011;41776;48.260;8.928;2022-10-26T02:47:45;2.70;;;0.90;;
1725;SDS011;41776;48.260;8.928;2022-10-26T02:50:12;5.03;;;1.10;;
1725;SDS011;41776;48.260;8.928;2022-10-26T02:52:40;2.70;;;0.95;;
1725;SDS011;41776;48.260;8.928;2022-10-26T02:55:13;3.10;;;0.93;;
1725;SDS011;41776;48.260;8.928;2022-10-26T02:57:46;2.70;;;0.95;;
1725;SDS011;41776;48.260;8.928;2022-10-26T03:00:16;8.48;;;1.08;;
1725;SDS011;41776;48.260;8.928;2022-10-26T03:02:44;2.07;;;0.90;;
1725;SDS011;41776;48.260;8.928;2022-10-26T03:05:18;9.60;;;1.30;;
1725;SDS011;41776;48.260;8.928;2022-10-26T03:07:46;4.60;;;1.10;;
1725;SDS011;41776;48.260;8.928;2022-10-26T03:10:13;5.75;;;1.20;;
1725;SDS011;41776;48.260;8.928;2022-10-26T03:12:39;4.15;;;1.08;;
1725;SDS011;41776;48.260;8.928;2022-10-26T03:15:06;4.47;;;1.05;;
1725;SDS011;41776;48.260;8.928;2022-10-26T03:17:33;4.57;;;1.20;;
1725;SDS011;41776;48.260;8.928;2022-10-26T03:20:01;6.68;;;1.00;;
1725;SDS011;41776;48.260;8.928;2022-10-26T03:22:29;7.38;;;1.00;;
1725;SDS011;41776;48.260;8.928;2022-10-26T03:24:55;4.70;;;1.25;;
1725;SDS011;41776;48.260;8.928;2022-10-26T03:27:22;4.78;;;1.27;;
1725;SDS011;41776;48.260;8.928;2022-10-26T03:29:48;8.00;;;1.05;;
1725;SDS011;41776;48.260;8.928;2022-10-26T03:32:15;9.35;;;1.20;;
1725;SDS011;41776;48.260;8.928;2022-10-26T03:34:41;2.80;;;1.10;;
1725;SDS011;41776;48.260;8.928;2022-10-26T03:37:09;6.28;;;1.33;;
1725;SDS011;41776;48.260;8.928;2022-10-26T03:39:35;4.03;;;0.90;;
1725;SDS011;41776;48.260;8.928;2022-10-26T03:42:02;6.63;;;1.60;;
1725;SDS011;41776;48.260;8.928;2022-10-26T03:44:28;5.65;;;1.30;;
1725;SDS011;41776;48.260;8.928;2022-10-26T03:46:55;5.90;;;1.60;;
1725;SDS011;41776;48.260;8.928;2022-10-26T03:49:21;4.20;;;1.38;;
1725;SDS011;41776;48.260;8.928;2022-10-26T03:51:48;8.43;;;1.42;;
1725;SDS011;41776;48.260;8.928;2022-10-26T03:54:16;6.50;;;1.40;;
1725;SDS011;41776;48.260;8.928;2022-10-26T03:56:43;6.30;;;1.70;;
1725;SDS011;41776;48.260;8.928;2022-10-26T03:59:09;4.80;;;1.40;;
1725;SDS011;41776;48.260;8.928;2022-10-26T04:01:36;2.30;;;1.35;;
1725;SDS011;41776;48.260;8.928;2022-10-26T04:04:02;6.47;;;1.73;;
1725;SDS011;41776;48.260;8.928;2022-10-26T04:06:29;6.45;;;1.65;;
1725;SDS011;41776;48.260;8.928;2022-10-26T04:08:55;8.85;;;1.38;;
1725;SDS011;41776;48.260;8.928;2022-10-26T04:11:27;9.82;;;1.55;;
1725;SDS011;41776;48.260;8.928;2022-10-26T04:13:54;6.75;;;1.35;;
1725;SDS011;41776;48.260;8.928;2022-10-26T04:16:23;6.38;;;1.65;;
1725;SDS011;41776;48.260;8.928;2022-10-26T04:18:50;7.68;;;1.73;;
1725;SDS011;41776;48.260;8.928;2022-10-26T04:21:16;10.43;;;1.83;;
1725;SDS011;41776;48.260;8.928;2022-10-26T04:23:43;12.60;;;1.83;;
1725;SDS011;41776;48.260;8.928;2022-10-26T04:26:09;6.47;;;1.80;;
1725;SDS011;41776;48.260;8.928;2022-10-26T04:28:37;4.07;;;1.40;;
1725;SDS011;41776;48.260;8.928;2022-10-26T04:31:03;10.55;;;1.70;;
1725;SDS011;41776;48.260;8.928;2022-10-26T04:33:30;4.40;;;1.60;;
1725;SDS011;41776;48.260;8.928;2022-10-26T04:35:57;8.25;;;1.58;;
1725;SDS011;41776;48.260;8.928;2022-10-26T04:38:24;9.30;;;2.00;;
1725;SDS011;41776;48.260;8.928;2022-10-26T04:40:51;5.05;;;1.55;;
1725;SDS011;41776;48.260;8.928;2022-10-26T04:43:17;9.50;;;1.42;;
1725;SDS011;41776;48.260;8.928;2022-10-26T04:45:45;6.80;;;1.90;;
1725;SDS011;41776;48.260;8.928;2022-10-26T04:48:12;3.15;;;1.90;;
1725;SDS011;41776;48.260;8.928;2022-10-26T04:50:39;7.78;;;1.80;;
1725;SDS011;41776;48.260;8.928;2022-10-26T04:53:06;8.60;;;1.88;;
1725;SDS011;41776;48.260;8.928;2022-10-26T04:55:34;3.97;;;1.30;;
1725;SDS011;41776;48.260;8.928;2022-10-26T04:58:01;3.40;;;1.48;;
1725;SDS011;41776;48.260;8.928;2022-10-26T05:00:27;7.35;;;1.40;;
1725;SDS011;41776;48.260;8.928;2022-10-26T05:03:01;7.18;;;1.50;;
1725;SDS011;41776;48.260;8.928;2022-10-26T05:05:29;7.13;;;1.85;;
1725;SDS011;41776;48.260;8.928;2022-10-26T05:07:56;11.15;;;1.70;;
1725;SDS011;41776;48.260;8.928;2022-10-26T05:10:23;6.30;;;1.25;;
1725;SDS011;41776;48.260;8.928;2022-10-26T05:12:50;9.98;;;1.48;;
1725;SDS011;41776;48.260;8.928;2022-10-26T05:15:17;6.75;;;1.83;;
1725;SDS011;41776;48.260;8.928;2022-10-26T05:17:43;3.10;;;1.50;;
1725;SDS011;41776;48.260;8.928;2022-10-26T05:20:11;8.23;;;1.58;;
1725;SDS011;41776;48.260;8.928;2022-10-26T05:22:38;4.93;;;1.42;;
1725;SDS011;41776;48.260;8.928;2022-10-26T05:25:05;8.68;;;1.67;;
1725;SDS011;41776;48.260;8.928;2022-10-26T05:27:32;11.07;;;2.45;;
1725;SDS011;41776;48.260;8.928;2022-10-26T05:29:58;7.20;;;1.77;;
1725;SDS011;41776;48.260;8.928;2022-10-26T05:32:25;5.70;;;1.58;;
1725;SDS011;41776;48.260;8.928;2022-10-26T05:34:51;3.95;;;1.40;;
1725;SDS011;41776;48.260;8.928;2022-10-26T05:37:19;4.80;;;1.65;;
1725;SDS011;41776;48.260;8.928;2022-10-26T05:39:46;6.45;;;1.70;;
1725;SDS011;41776;48.260;8.928;2022-10-26T05:42:12;5.18;;;1.63;;
1725;SDS011;41776;48.260;8.928;2022-10-26T05:44:38;7.55;;;2.58;;
1725;SDS011;41776;48.260;8.928;2022-10-26T05:47:05;4.15;;;1.52;;
1725;SDS011;41776;48.260;8.928;2022-10-26T05:49:31;4.68;;;1.90;;
1725;SDS011;41776;48.260;8.928;2022-10-26T05:51:58;10.10;;;1.70;;
1725;SDS011;41776;48.260;8.928;2022-10-26T05:54:25;4.05;;;1.80;;
1725;SDS011;41776;48.260;8.928;2022-10-26T05:56:52;4.03;;;1.70;;
1725;SDS011;41776;48.260;8.928;2022-10-26T05:59:19;11.77;;;1.95;;
1725;SDS011;41776;48.260;8.928;2022-10-26T06:01:51;9.35;;;2.00;;
1725;SDS011;41776;48.260;8.928;2022-10-26T06:04:33;17.88;;;3.10;;
1725;SDS011;41776;48.260;8.928;2022-10-26T06:07:03;10.65;;;1.90;;
1725;SDS011;41776;48.260;8.928;2022-10-26T06:09:36;7.15;;;2.10;;
1725;SDS011;41776;48.260;8.928;2022-10-26T06:12:03;8.75;;;2.53;;
1725;SDS011;41776;48.260;8.928;2022-10-26T06:14:31;7.80;;;1.95;;
1725;SDS011;41776;48.260;8.928;2022-10-26T06:17:00;7.78;;;2.20;;
1725;SDS011;41776;48.260;8.928;2022-10-26T06:19:42;7.75;;;1.83;;
1725;SDS011;41776;48.260;8.928;2022-10-26T06:22:27;3.83;;;1.77;;
1725;SDS011;41776;48.260;8.928;2022-10-26T06:25:09;10.63;;;1.70;;
1725;SDS011;41776;48.260;8.928;2022-10-26T06:27:43;10.65;;;1.80;;
1725;SDS011;41776;48.260;8.928;2022-10-26T06:30:20;6.65;;;2.00;;
1725;SDS011;41776;48.260;8.928;2022-10-26T06:32:47;5.38;;;1.58;;
1725;SDS011;41776;48.260;8.928;2022-10-26T06:35:19;10.52;;;1.52;;
1725;SDS011;41776;48.260;8.928;2022-10-26T06:37:57;4.88;;;1.60;;
1725;SDS011;41776;48.260;8.928;2022-10-26T06:40:28;8.32;;;1.98;;
1725;SDS011;41776;48.260;8.928;2022-10-26T06:42:57;8.77;;;2.00;;
1725;SDS011;41776;48.260;8.928;2022-10-26T06:45:24;6.43;;;1.80;;
1725;SDS011;41776;48.260;8.928;2022-10-26T06:47:52;6.38;;;1.60;;
1725;SDS011;41776;48.260;8.928;2022-10-26T06:50:27;5.70;;;1.80;;
1725;SDS011;41776;48.260;8.928;2022-10-26T06:53:00;7.85;;;1.90;;
1725;SDS011;41776;48.260;8.928;2022-10-26T06:55:38;6.40;;;1.70;;
1725;SDS011;41776;48.260;8.928;2022-10-26T06:58:08;5.28;;;1.70;;
1725;SDS011;41776;48.260;8.928;2022-10-26T07:00:38;9.23;;;2.60;;
1725;SDS011;41776;48.260;8.928;2022-10-26T07:03:05;7.30;;;1.80;;
1725;SDS011;41776;48.260;8.928;2022-10-26T07:05:32;4.93;;;1.90;;
1725;SDS011;41776;48.260;8.928;2022-10-26T07:07:59;5.10;;;1.75;;
1725;SDS011;41776;48.260;8.928;2022-10-26T07:10:25;8.18;;;1.88;;
1725;SDS011;41776;48.260;8.928;2022-10-26T07:12:53;7.25;;;2.05;;
1725;SDS011;41776;48.260;8.928;2022-10-26T07:15:19;12.82;;;1.85;;
1725;SDS011;41776;48.260;8.928;2022-10-26T07:17:46;8.60;;;1.98;;
1725;SDS011;41776;48.260;8.928;2022-10-26T07:20:14;7.85;;;2.10;;
1725;SDS011;41776;48.260;8.928;2022-10-26T07:22:41;8.57;;;2.30;;
1725;SDS011;41776;48.260;8.928;2022-10-26T07:25:08;7.40;;;1.98;;
1725;SDS011;41776;48.260;8.928;2022-10-26T07:27:36;9.77;;;2.40;;
1725;SDS011;41776;48.260;8.928;2022-10-26T07:30:05;8.95;;;2.30;;
1725;SDS011;41776;48.260;8.928;2022-10-26T07:32:32;9.05;;;1.90;;
1725;SDS011;41776;48.260;8.928;2022-10-26T07:34:58;11.00;;;2.50;;
1725;SDS011;41776;48.260;8.928;2022-10-26T07:37:24;7.63;;;2.40;;
1725;SDS011;41776;48.260;8.928;2022-10-26T07:39:51;13.07;;;2.53;;
1725;SDS011;41776;48.260;8.928;2022-10-26T07:42:17;7.40;;;1.65;;
1725;SDS011;41776;48.260;8.928;2022-10-26T07:44:44;9.07;;;1.80;;
1725;SDS011;41776;48.260;8.928;2022-10-26T07:47:12;11.77;;;2.13;;
1725;SDS011;41776;48.260;8.928;2022-10-26T07:49:39;8.63;;;1.73;;
1725;SDS011;41776;48.260;8.928;2022-10-26T07:52:05;6.38;;;2.08;;
1725;SDS011;41776;48.260;8.928;2022-10-26T07:54:32;10.27;;;2.10;;
1725;SDS011;41776;48.260;8.928;2022-10-26T07:56:58;7.32;;;1.75;;
1725;SDS011;41776;48.260;8.928;2022-10-26T07:59:25;12.48;;;1.98;;
1725;SDS011;41776;48.260;8.928;2022-10-26T08:01:51;8.18;;;2.03;;
1725;SDS011;41776;48.260;8.928;2022-10-26T08:04:19;15.15;;;2.67;;
1725;SDS011;41776;48.260;8.928;2022-10-26T08:06:46;6.60;;;2.40;;
1725;SDS011;41776;48.260;8.928;2022-10-26T08:09:12;12.00;;;2.75;;
1725;SDS011;41776;48.260;8.928;2022-10-26T08:11:39;11.73;;;2.28;;
1725;SDS011;41776;48.260;8.928;2022-10-26T08:14:06;8.80;;;2.33;;
1725;SDS011;41776;48.260;8.928;2022-10-26T08:16:32;8.38;;;2.00;;
1725;SDS011;41776;48.260;8.928;2022-10-26T08:18:59;12.38;;;1.63;;
1725;SDS011;41776;48.260;8.928;2022-10-26T08:21:27;11.02;;;2.03;;
1725;SDS011;41776;48.260;8.928;2022-10-26T08:23:53;9.68;;;1.70;;
1725;SDS011;41776;48.260;8.928;2022-10-26T08:26:19;11.02;;;2.30;;
1725;SDS011;41776;48.260;8.928;2022-10-26T08:28:49;8.68;;;2.20;;
1725;SDS011;41776;48.260;8.928;2022-10-26T08:31:18;13.48;;;2.22;;
1725;SDS011;41776;48.260;8.928;2022-10-26T08:33:48;8.23;;;2.08;;
1725;SDS011;41776;48.260;8.928;2022-10-26T08:36:16;6.22;;;1.60;;
1725;SDS011;41776;48.260;8.928;2022-10-26T08:38:49;12.77;;;2.60;;
1725;SDS011;41776;48.260;8.928;2022-10-26T08:41:16;9.95;;;1.80;;
1725;SDS011;41776;48.260;8.928;2022-10-26T08:43:51;10.65;;;2.50;;
1725;SDS011;41776;48.260;8.928;2022-10-26T08:46:22;11.55;;;2.03;;
1725;SDS011;41776;48.260;8.928;2022-10-26T08:48:54;10.38;;;2.13;;
1725;SDS011;41776;48.260;8.928;2022-10-26T08:51:25;6.13;;;1.67;;
1725;SDS011;41776;48.260;8.928;2022-10-26T08:53:57;9.43;;;1.83;;
1725;SDS011;41776;48.260;8.928;2022-10-26T08:56:27;6.47;;;2.03;;
1725;SDS011;41776;48.260;8.928;2022-10-26T08:59:00;7.57;;;1.95;;
1725;SDS011;41776;48.260;8.928;2022-10-26T09:01:32;8.65;;;1.80;;
1725;SDS011;41776;48.260;8.928;2022-10-26T09:03:59;6.15;;;1.67;;
1725;SDS011;41776;48.260;8.928;2022-10-26T09:06:28;11.80;;;1.65;;
1725;SDS011;41776;48.260;8.928;2022-10-26T09:09:04;7.00;;;1.65;;
1725;SDS011;41776;48.260;8.928;2022-10-26T09:11:40;6.70;;;1.20;;
1725;SDS011;41776;48.260;8.928;2022-10-26T09:14:27;9.50;;;1.88;;
1725;SDS011;41776;48.260;8.928;2022-10-26T09:17:04;8.93;;;1.58;;
1725;SDS011;41776;48.260;8.928;2022-10-26T09:19:44;6.57;;;1.50;;
1725;SDS011;41776;48.260;8.928;2022-10-26T09:22:26;7.20;;;1.60;;
1725;SDS011;41776;48.260;8.928;2022-10-26T09:25:01;6.88;;;1.33;;
1725;SDS011;41776;48.260;8.928;2022-10-26T09:27:38;8.95;;;1.70;;
1725;SDS011;41776;48.260;8.928;2022-10-26T09:30:12;7.75;;;1.55;;
1725;SDS011;41776;48.260;8.928;2022-10-26T09:32:41;10.48;;;1.83;;
1725;SDS011;41776;48.260;8.928;2022-10-26T09:35:12;7.47;;;1.92;;
1725;SDS011;41776;48.260;8.928;2022-10-26T09:37:41;7.10;;;1.77;;
1725;SDS011;41776;48.260;8.928;2022-10-26T09:40:16;8.35;;;1.55;;
1725;SDS011;41776;48.260;8.928;2022-10-26T09:42:48;5.40;;;1.33;;
1725;SDS011;41776;48.260;8.928;2022-10-26T09:45:21;5.03;;;1.38;;
1725;SDS011;41776;48.260;8.928;2022-10-26T09:47:53;6.03;;;1.60;;
1725;SDS011;41776;48.260;8.928;2022-10-26T09:50:25;9.05;;;1.80;;
1725;SDS011;41776;48.260;8.928;2022-10-26T09:52:55;10.85;;;1.77;;
1725;SDS011;41776;48.260;8.928;2022-10-26T09:55:23;8.65;;;2.10;;
1725;SDS011;41776;48.260;8.928;2022-10-26T09:57:52;5.28;;;1.48;;
1725;SDS011;41776;48.260;8.928;2022-10-26T10:00:22;11.05;;;1.85;;
1725;SDS011;41776;48.260;8.928;2022-10-26T10:02:50;4.57;;;1.35;;
1725;SDS011;41776;48.260;8.928;2022-10-26T10:05:25;6.35;;;1.55;;
1725;SDS011;41776;48.260;8.928;2022-10-26T10:08:08;8.32;;;1.77;;
1725;SDS011;41776;48.260;8.928;2022-10-26T10:10:37;8.10;;;1.67;;
1725;SDS011;41776;48.260;8.928;2022-10-26T10:13:18;11.23;;;2.13;;
1725;SDS011;41776;48.260;8.928;2022-10-26T10:15:50;10.93;;;1.92;;
1725;SDS011;41776;48.260;8.928;2022-10-26T10:18:19;10.48;;;1.88;;
1725;SDS011;41776;48.260;8.928;2022-10-26T10:20:51;10.00;;;2.03;;
1725;SDS011;41776;48.260;8.928;2022-10-26T10:23:24;8.02;;;1.77;;
1725;SDS011;41776;48.260;8.928;2022-10-26T10:26:00;4.25;;;1.60;;
1725;SDS011;41776;48.260;8.928;2022-10-26T10:28:33;8.10;;;1.88;;
1725;SDS011;41776;48.260;8.928;2022-10-26T10:31:00;5.90;;;1.92;;
1725;SDS011;41776;48.260;8.928;2022-10-26T10:33:32;8.82;;;1.90;;
1725;SDS011;41776;48.260;8.928;2022-10-26T10:36:05;7.15;;;2.17;;
1725;SDS011;41776;48.260;8.928;2022-10-26T10:38:40;10.93;;;2.28;;
1725;SDS011;41776;48.260;8.928;2022-10-26T10:41:15;7.85;;;1.90;;
1725;SDS011;41776;48.260;8.928;2022-10-26T10:43:45;8.10;;;1.88;;
1725;SDS011;41776;48.260;8.928;2022-10-26T10:46:18;9.90;;;2.47;;
1725;SDS011;41776;48.260;8.928;2022-10-26T10:48:49;8.00;;;2.10;;
1725;SDS011;41776;48.260;8.928;2022-10-26T10:51:19;11.55;;;2.00;;
1725;SDS011;41776;48.260;8.928;2022-10-26T10:53:48;8.73;;;1.90;;
1725;SDS011;41776;48.260;8.928;2022-10-26T10:56:22;7.32;;;2.17;;
1725;SDS011;41776;48.260;8.928;2022-10-26T10:59:12;9.55;;;2.00;;
1725;SDS011;41776;48.260;8.928;2022-10-26T11:01:54;6.72;;;1.67;;
1725;SDS011;41776;48.260;8.928;2022-10-26T11:04:39;6.68;;;1.90;;
1725;SDS011;41776;48.260;8.928;2022-10-26T11:07:18;6.35;;;2.33;;
1725;SDS011;41776;48.260;8.928;2022-10-26T11:09:46;9.55;;;2.05;;
1725;SDS011;41776;48.260;8.928;2022-10-26T11:12:17;8.50;;;1.88;;
1725;SDS011;41776;48.260;8.928;2022-10-26T11:14:49;8.90;;;1.90;;
1725;SDS011;41776;48.260;8.928;2022-10-26T11:17:23;5.97;;;1.83;;
1725;SDS011;41776;48.260;8.928;2022-10-26T11:19:53;8.95;;;2.30;;
1725;SDS011;41776;48.260;8.928;2022-10-26T11:22:24;9.82;;;1.95;;
1725;SDS011;41776;48.260;8.928;2022-10-26T11:24:55;6.78;;;1.80;;
1725;SDS011;41776;48.260;8.928;2022-10-26T11:27:26;11.27;;;2.25;;
1725;SDS011;41776;48.260;8.928;2022-10-26T11:30:00;7.32;;;1.88;;
1725;SDS011;41776;48.260;8.928;2022-10-26T11:32:31;9.00;;;2.08;;
1725;SDS011;41776;48.260;8.928;2022-10-26T11:35:04;6.05;;;1.77;;
1725;SDS011;41776;48.260;8.928;2022-10-26T11:37:40;13.55;;;2.40;;
1725;SDS011;41776;48.260;8.928;2022-10-26T11:40:15;6.82;;;2.10;;
1725;SDS011;41776;48.260;8.928;2022-10-26T11:42:51;4.85;;;1.60;;
1725;SDS011;41776;48.260;8.928;2022-10-26T11:45:27;8.07;;;2.20;;
1725;SDS011;41776;48.260;8.928;2022-10-26T11:48:00;8.27;;;2.22;;
1725;SDS011;41776;48.260;8.928;2022-10-26T11:50:32;10.07;;;2.60;;
1725;SDS011;41776;48.260;8.928;2022-10-26T11:53:03;10.75;;;2.58;;
1725;SDS011;41776;48.260;8.928;2022-10-26T11:55:35;5.60;;;2.17;;
1725;SDS011;41776;48.260;8.928;2022-10-26T11:58:07;9.32;;;1.98;;
1725;SDS011;41776;48.260;8.928;2022-10-26T12:00:39;6.00;;;1.63;;
1725;SDS011;41776;48.260;8.928;2022-10-26T12:03:12;7.88;;;1.58;;
1725;SDS011;41776;48.260;8.928;2022-10-26T12:05:44;7.10;;;2.00;;
1725;SDS011;41776;48.260;8.928;2022-10-26T12:08:15;8.32;;;1.65;;
1725;SDS011;41776;48.260;8.928;2022-10-26T12:10:49;8.45;;;1.85;;
1725;SDS011;41776;48.260;8.928;2022-10-26T12:13:26;9.23;;;1.83;;
1725;SDS011;41776;48.260;8.928;2022-10-26T12:16:00;9.38;;;1.75;;
1725;SDS011;41776;48.260;8.928;2022-10-26T12:18:33;14.43;;;1.70;;
1725;SDS011;41776;48.260;8.928;2022-10-26T12:21:06;5.75;;;1.35;;
1725;SDS011;41776;48.260;8.928;2022-10-26T12:23:35;9.15;;;1.65;;
1725;SDS011;41776;48.260;8.928;2022-10-26T12:32:00;5.18;;;1.60;;
1725;SDS011;41776;48.260;8.928;2022-10-26T12:37:32;10.75;;;1.95;;
1725;SDS011;41776;48.260;8.928;2022-10-26T12:43:31;8.95;;;1.70;;
1725;SDS011;41776;48.260;8.928;2022-10-26T12:52:31;11.25;;;2.08;;
1725;SDS011;41776;48.260;8.928;2022-10-26T12:55:14;5.65;;;1.90;;
1725;SDS011;41776;48.260;8.928;2022-10-26T12:57:51;7.65;;;1.80;;
1725;SDS011;41776;48.260;8.928;2022-10-26T13:00:29;8.05;;;1.85;;
1725;SDS011;41776;48.260;8.928;2022-10-26T13:03:02;7.03;;;1.90;;
1725;SDS011;41776;48.260;8.928;2022-10-26T13:05:49;10.73;;;1.83;;
1725;SDS011;41776;48.260;8.928;2022-10-26T13:08:38;6.35;;;1.92;;
1725;SDS011;41776;48.260;8.928;2022-10-26T13:11:11;12.10;;;1.98;;
1725;SDS011;41776;48.260;8.928;2022-10-26T13:13:40;8.98;;;2.30;;
1725;SDS011;41776;48.260;8.928;2022-10-26T13:16:09;9.48;;;1.80;;
1725;SDS011;41776;48.260;8.928;2022-10-26T13:18:40;6.68;;;1.75;;
1725;SDS011;41776;48.260;8.928;2022-10-26T13:21:09;7.05;;;1.90;;
1725;SDS011;41776;48.260;8.928;2022-10-26T13:23:40;9.60;;;2.63;;
1725;SDS011;41776;48.260;8.928;2022-10-26T13:26:10;7.45;;;2.17;;
1725;SDS011;41776;48.260;8.928;2022-10-26T13:28:43;8.98;;;1.90;;
1725;SDS011;41776;48.260;8.928;2022-10-26T13:31:13;10.80;;;2.38;;
1725;SDS011;41776;48.260;8.928;2022-10-26T13:33:58;7.75;;;1.50;;
1725;SDS011;41776;48.260;8.928;2022-10-26T13:36:30;8.23;;;1.92;;
1725;SDS011;41776;48.260;8.928;2022-10-26T13:39:04;10.18;;;2.60;;
1725;SDS011;41776;48.260;8.928;2022-10-26T13:41:36;6.88;;;2.05;;
1725;SDS011;41776;48.260;8.928;2022-10-26T13:44:05;10.30;;;1.58;;
1725;SDS011;41776;48.260;8.928;2022-10-26T13:46:39;10.10;;;1.98;;
1725;SDS011;41776;48.260;8.928;2022-10-26T13:49:08;9.88;;;2.03;;
1725;SDS011;41776;48.260;8.928;2022-10-26T13:51:44;8.88;;;1.63;;
1725;SDS011;41776;48.260;8.928;2022-10-26T13:54:20;9.85;;;2.03;;
1725;SDS011;41776;48.260;8.928;2022-10-26T13:57:04;7.20;;;1.70;;
1725;SDS011;41776;48.260;8.928;2022-10-26T13:59:40;7.63;;;1.40;;
1725;SDS011;41776;48.260;8.928;2022-10-26T14:02:16;10.45;;;1.85;;
1725;SDS011;41776;48.260;8.928;2022-10-26T14:04:45;8.35;;;2.35;;
1725;SDS011;41776;48.260;8.928;2022-10-26T14:07:14;9.45;;;1.85;;
1725;SDS011;41776;48.260;8.928;2022-10-26T14:09:49;9.70;;;1.73;;
1725;SDS011;41776;48.260;8.928;2022-10-26T14:12:17;7.88;;;1.83;;
1725;SDS011;41776;48.260;8.928;2022-10-26T14:14:44;7.65;;;1.77;;
1725;SDS011;41776;48.260;8.928;2022-10-26T14:17:13;12.20;;;1.95;;
1725;SDS011;41776;48.260;8.928;2022-10-26T14:19:44;9.90;;;2.00;;
1725;SDS011;41776;48.260;8.928;2022-10-26T14:22:14;7.68;;;1.92;;
1725;SDS011;41776;48.260;8.928;2022-10-26T14:24:53;8.57;;;1.60;;
1725;SDS011;41776;48.260;8.928;2022-10-26T14:27:21;11.90;;;2.03;;
1725;SDS011;41776;48.260;8.928;2022-10-26T14:29:49;15.35;;;2.10;;
1725;SDS011;41776;48.260;8.928;2022-10-26T14:32:20;9.20;;;1.95;;
1725;SDS011;41776;48.260;8.928;2022-10-26T14:34:50;7.18;;;1.50;;
1725;SDS011;41776;48.260;8.928;2022-10-26T14:37:21;11.00;;;1.73;;
1725;SDS011;41776;48.260;8.928;2022-10-26T14:39:55;8.98;;;1.85;;
1725;SDS011;41776;48.260;8.928;2022-10-26T14:42:23;10.65;;;1.98;;
1725;SDS011;41776;48.260;8.928;2022-10-26T14:44:54;14.32;;;1.83;;
1725;SDS011;41776;48.260;8.928;2022-10-26T14:47:22;9.23;;;2.00;;
1725;SDS011;41776;48.260;8.928;2022-10-26T14:49:50;8.80;;;1.70;;
1725;SDS011;41776;48.260;8.928;2022-10-26T14:52:19;5.97;;;1.92;;
1725;SDS011;41776;48.260;8.928;2022-10-26T14:54:56;7.20;;;2.10;;
1725;SDS011;41776;48.260;8.928;2022-10-26T14:57:28;6.68;;;1.65;;
1725;SDS011;41776;48.260;8.928;2022-10-26T15:00:00;8.55;;;2.17;;
1725;SDS011;41776;48.260;8.928;2022-10-26T15:02:30;8.30;;;1.90;;
1725;SDS011;41776;48.260;8.928;2022-10-26T15:04:59;11.88;;;2.28;;
1725;SDS011;41776;48.260;8.928;2022-10-26T15:07:34;8.52;;;2.20;;
1725;SDS011;41776;48.260;8.928;2022-10-26T15:10:03;16.50;;;2.42;;
1725;SDS011;41776;48.260;8.928;2022-10-26T15:12:31;12.90;;;2.00;;
1725;SDS011;41776;48.260;8.928;2022-10-26T15:14:59;6.82;;;1.88;;
1725;SDS011;41776;48.260;8.928;2022-10-26T15:17:36;12.48;;;2.15;;
1725;SDS011;41776;48.260;8.928;2022-10-26T15:20:07;11.07;;;2.40;;
1725;SDS011;41776;48.260;8.928;2022-10-26T15:22:41;16.35;;;2.63;;
1725;SDS011;41776;48.260;8.928;2022-10-26T15:25:15;12.38;;;2.47;;
1725;SDS011;41776;48.260;8.928;2022-10-26T15:27:44;20.27;;;4.25;;
1725;SDS011;41776;48.260;8.928;2022-10-26T15:30:19;11.77;;;2.88;;
1725;SDS011;41776;48.260;8.928;2022-10-26T15:32:49;8.38;;;2.40;;
1725;SDS011;41776;48.260;8.928;2022-10-26T15:35:29;16.10;;;3.58;;
1725;SDS011;41776;48.260;8.928;2022-10-26T15:37:57;21.50;;;9.40;;
1725;SDS011;41776;48.260;8.928;2022-10-26T15:40:26;22.40;;;8.93;;